Flight Track Log - Related Links

Times and Time Zones

All times are in EST time to prevent confusion due to time zone crossing. See the ASQ5678 flight status page for this flight to view local times or setup timezone preferences in your user account.

Time Position Orientation Groundspeed Altitude Reporting Facility
EST Latitude Longitude Course Direction KTS MPH feet Rate Location/Type
Mon 03:17:50 PM 40.6500 -74.2000 270° West 191 220 2,000  Level New York TRACON
Mon 03:18:56 PM 40.6500 -74.2833 270° West 226 260 3,800 1,900 Climbing New York TRACON
Mon 03:19:50 PM 40.6500 -74.3667 270° West 236 272 5,800 2,526 Climbing New York TRACON
Mon 03:20:50 PM 40.6500 -74.4500 270° West 219 252 8,600 2,077 Climbing New York TRACON
Mon 03:22:26 PM 40.6567 -74.5733 274° West 215 247 11,200 1,269 Climbing New York Center
Mon 03:23:26 PM 40.6619 -74.6639 274° West 244 281 11,900 650 Climbing New York Center
Mon 03:24:26 PM 40.6689 -74.7711 275° West 282 325 12,500 700 Climbing New York Center
Mon 03:25:26 PM 40.6733 -74.8808 273° West 299 344 13,300 850 Climbing New York Center
Mon 03:26:26 PM 40.6783 -74.9794 274° West 313 360 14,200 950 Climbing New York Center
Mon 03:27:26 PM 40.6764 -75.0889 269° West 303 349 15,200 1,000 Climbing New York Center
Mon 03:28:26 PM 40.6356 -75.1819 240° Southwest 274 315 16,200 950 Climbing New York Center
Mon 03:29:26 PM 40.5992 -75.2617 239° Southwest 269 310 17,100 1,050 Climbing New York Center
Mon 03:30:26 PM 40.5650 -75.3333 238° Southwest 269 310 18,300 1,000 Climbing New York Center
Mon 03:31:26 PM 40.5286 -75.4128 239° Southwest 269 310 19,100 800 Climbing New York Center
Mon 03:32:26 PM 40.4919 -75.4950 240° Southwest 263 303 19,900 750 Climbing New York Center
Mon 03:33:26 PM 40.4553 -75.5797 240° Southwest 263 303 20,600 800 Climbing New York Center
Mon 03:34:26 PM 40.4119 -75.6694 238° Southwest 263 303 21,500 800 Climbing New York Center
Mon 03:35:26 PM 40.3753 -75.7511 240° Southwest 263 303 22,200 700 Climbing New York Center
Mon 03:36:26 PM 40.3386 -75.8247 237° Southwest 263 303 22,900 750 Climbing New York Center
Mon 03:37:26 PM 40.2953 -75.9169 238° Southwest 263 303 23,700 750 Climbing New York Center
Mon 03:38:26 PM 40.2583 -75.9986 239° Southwest 263 303 24,400 750 Climbing New York Center
Mon 03:39:26 PM 40.2192 -76.0772 237° Southwest 263 303 25,200 750 Climbing New York Center
Mon 03:40:26 PM 40.1822 -76.1586 239° Southwest 263 303 25,900 750 Climbing New York Center
Mon 03:41:26 PM 40.1472 -76.2400 241° Southwest 266 306 26,700 750 Climbing New York Center
Mon 03:42:26 PM 40.1106 -76.3131 237° Southwest 261 300 27,400 545 Climbing New York Center
Mon 03:43:27 PM 40.0756 -76.3892 239° Southwest 256 295 27,800 450 Climbing New York Center
Mon 03:44:26 PM 40.0406 -76.4675 240° Southwest 256 295 28,300 454 Climbing New York Center
Mon 03:45:26 PM 40.0033 -76.5458 238° Southwest 256 295 28,700 450 Climbing New York Center
Mon 03:46:26 PM 39.9683 -76.6242 240° Southwest 256 295 29,200 450 Climbing New York Center
Mon 03:47:26 PM 39.9311 -76.6997 237° Southwest 256 295 29,600 450 Climbing New York Center
Mon 03:48:26 PM 39.8936 -76.7803 239° Southwest 261 300 30,100 450 Climbing New York Center
Mon 03:49:26 PM 39.8656 -76.8428 240° Southwest 261 300 30,500 419 Climbing New York Center
Mon 03:50:35 PM 39.8186 -76.9367 237° Southwest 258 297 31,000 692 Climbing Washington Center
Mon 03:51:36 PM 39.7803 -77.0144 237° Southwest 258 297 32,000 942 Climbing Washington Center
Mon 03:52:36 PM 39.7461 -77.0892 239° Southwest 252 290 32,900 763 Climbing Washington Center
Mon 03:53:34 PM 39.7139 -77.1614 240° Southwest 252 290 33,500 605 Climbing Washington Center
Mon 03:54:35 PM 39.6775 -77.2361 238° Southwest 246 283 34,100 541 Climbing Washington Center
Mon 03:55:36 PM 39.6453 -77.3056 239° Southwest 246 283 34,600 496 Climbing Washington Center
Mon 03:56:36 PM 39.6108 -77.3772 238° Southwest 246 283 35,100 559 Climbing Washington Center
Mon 03:57:34 PM 39.5764 -77.4492 238° Southwest 246 283 35,700 458 Climbing Washington Center
Mon 03:58:34 PM 39.5419 -77.5211 238° Southwest 246 283 36,000 149 Climbing Washington Center
Mon 03:59:35 PM 39.5053 -77.5953 237° Southwest 246 283 36,000  Level Washington Center
Mon 04:00:36 PM 39.4686 -77.6750 239° Southwest 251 289 36,000  Level Washington Center
Mon 04:01:34 PM 39.4297 -77.7572 239° Southwest 261 300 36,000  Level Washington Center
Mon 04:02:34 PM 39.3883 -77.8419 238° Southwest 267 307 36,000  Level Washington Center
Mon 04:03:35 PM 39.3514 -77.9292 241° Southwest 273 314 36,000  Level Washington Center
Mon 04:04:35 PM 39.3183 -78.0167 244° Southwest 273 314 36,000  Level Washington Center
Mon 04:05:36 PM 39.2833 -78.1042 243° Southwest 273 314 36,000  Level Washington Center
Mon 04:06:36 PM 39.2481 -78.1939 243° Southwest 278 320 36,000  Level Washington Center
Mon 04:07:34 PM 39.2128 -78.2811 242° Southwest 278 320 36,000  Level Washington Center
Mon 04:08:34 PM 39.1772 -78.3708 243° Southwest 278 320 36,000  Level Washington Center
Mon 04:09:35 PM 39.1419 -78.4578 242° Southwest 283 326 36,000  Level Washington Center
Mon 04:10:35 PM 39.1064 -78.5475 243° Southwest 283 326 36,000  Level Washington Center
Mon 04:11:35 PM 39.0686 -78.6367 241° Southwest 283 326 36,000  Level Washington Center
Mon 04:12:34 PM 39.0331 -78.7289 244° Southwest 278 320 36,000  Level Washington Center
Mon 04:13:34 PM 38.9953 -78.8153 241° Southwest 278 320 36,000  Level Washington Center
Mon 04:14:35 PM 38.9594 -78.9072 243° Southwest 278 320 36,000  Level Washington Center
Mon 04:15:33 PM 38.9214 -78.9989 242° Southwest 283 326 36,000  Level Washington Center
Mon 04:16:36 PM 38.8856 -79.0906 243° Southwest 283 326 36,000  Level Washington Center
Mon 04:17:34 PM 38.8453 -79.1819 241° Southwest 283 326 36,000  Level Washington Center
Mon 04:18:35 PM 38.8378 -79.2936 265° West 296 341 36,000  Level Washington Center
Mon 04:19:36 PM 38.8364 -79.4028 269° West 302 348 36,000  Level Washington Center
Mon 04:20:36 PM 38.8328 -79.5119 268° West 307 353 36,000  Level Washington Center
Mon 04:21:34 PM 38.8333 -79.6264 270° West 312 359 36,000  Level Washington Center
Mon 04:22:35 PM 38.8311 -79.7489 269° West 312 359 36,000  Level Washington Center
Mon 04:23:36 PM 38.8275 -79.8553 268° West 312 359 36,000  Level Washington Center
Mon 04:24:36 PM 38.8256 -79.9619 269° West 312 359 36,000 -202 Level Washington Center
Mon 04:25:35 PM 38.8214 -80.0736 267° West 312 359 35,600 -417 Descending Washington Center
Mon 04:27:00 PM 38.8164 -80.2244 268° West 309 356 35,000 -245 Descending Indianapolis Center
Mon 04:28:02 PM 38.8142 -80.3356 269° West 313 360 35,000  Level Indianapolis Center
Mon 04:29:03 PM 38.8100 -80.4494 267° West 318 366 35,000  Level Indianapolis Center
Mon 04:30:04 PM 38.8067 -80.5667 268° West 325 374 35,000  Level Indianapolis Center
Mon 04:31:05 PM 38.8031 -80.6817 268° West 327 376 35,000  Level Indianapolis Center
Mon 04:32:07 PM 38.8003 -80.7969 268° West 323 372 35,000  Level Indianapolis Center
Mon 04:33:08 PM 38.7958 -80.9117 267° West 323 372 35,000  Level Indianapolis Center
Mon 04:34:09 PM 38.7922 -81.0272 268° West 324 373 35,000 -295 Level Indianapolis Center
Mon 04:35:10 PM 38.7883 -81.1417 268° West 322 371 34,400 -634 Descending Indianapolis Center
Mon 04:36:12 PM 38.7847 -81.2492 268° West 306 352 33,700 -780 Descending Indianapolis Center
Mon 04:37:13 PM 38.7800 -81.3822 267° West 313 360 32,800 -787 Descending Indianapolis Center
Mon 04:38:14 PM 38.7769 -81.4886 268° West 315 362 32,100 -390 Descending Indianapolis Center
Mon 04:39:16 PM 38.7719 -81.6008 267° West 316 364 32,000 -49 Descending Indianapolis Center
Mon 04:40:17 PM 38.7681 -81.7075 267° West 308 354 32,000  Level Indianapolis Center
Mon 04:41:18 PM 38.7636 -81.8175 267° West 310 357 32,000 -443 Level Indianapolis Center
Mon 04:42:19 PM 38.7589 -81.9289 267° West 313 360 31,100 -976 Descending Indianapolis Center
Mon 04:43:21 PM 38.7450 -82.0669 263° West 323 372 30,000 -732 Descending Indianapolis Center
Mon 04:44:22 PM 38.7158 -82.1725 251° West 317 365 29,600 -738 Descending Indianapolis Center
Mon 04:45:23 PM 38.6875 -82.2800 251° West 318 366 28,500 -1,024 Descending Indianapolis Center
Mon 04:46:25 PM 38.6581 -82.3883 251° West 320 368 27,500 -1,220 Descending Indianapolis Center
Mon 04:47:26 PM 38.6281 -82.5025 251° West 335 386 26,000 -1,672 Descending Indianapolis Center
Mon 04:48:27 PM 38.5981 -82.6164 251° West 338 389 24,100 -1,918 Descending Indianapolis Center
Mon 04:49:28 PM 38.5664 -82.7303 250° West 340 391 22,100 -1,033 Descending Indianapolis Center
Mon 04:50:29 PM 38.5347 -82.8478 251° West 348 400 22,000 -49 Descending Indianapolis Center
Mon 04:51:31 PM 38.5031 -82.9625 251° West 345 397 22,000  Level Indianapolis Center
Mon 04:52:32 PM 38.4708 -83.0961 253° West 339 390 22,000  Level Indianapolis Center
Mon 04:53:33 PM 38.4858 -83.2181 279° West 348 400 22,000 -787 Level Indianapolis Center
Mon 04:54:34 PM 38.5044 -83.3397 281° West 348 400 20,400 -1,770 Descending Indianapolis Center
Mon 04:55:35 PM 38.5222 -83.4619 281° West 350 403 18,400 -1,854 Descending Indianapolis Center
Mon 04:56:37 PM 38.5406 -83.5794 281° West 341 392 16,600 -1,854 Descending Indianapolis Center
Mon 04:57:38 PM 38.5572 -83.6900 281° West 324 373 14,600 -1,967 Descending Indianapolis Center
Mon 04:58:39 PM 38.5731 -83.8008 280° West 318 366 12,600 -1,770 Descending Indianapolis Center
Mon 04:59:40 PM 38.5892 -83.9083 281° West 311 358 11,000 -787 Descending Indianapolis Center
Mon 05:00:41 PM 38.6036 -84.0072 281° West 292 336 11,000  Level Indianapolis Center
Mon 05:01:42 PM 38.6189 -84.1031 282° West 277 319 11,000  Level Indianapolis Center
Mon 05:02:44 PM 38.6536 -84.1953 296° West 302 348 11,000 -244 Level Indianapolis Center
Mon 05:03:45 PM 38.7269 -84.2350 337° Northwest 289 333 10,500 -738 Descending Indianapolis Center
Mon 05:04:46 PM 38.7922 -84.2700 337° Northwest 256 295 9,500 -1,131 Descending Indianapolis Center
Mon 05:05:47 PM 38.8517 -84.3028 337° Northwest 236 272 8,200 -1,328 Descending Indianapolis Center
Mon 05:06:48 PM 38.9117 -84.3361 337° Northwest 235 270 6,800 -1,525 Descending Indianapolis Center
Mon 05:07:49 PM 38.9817 -84.3725 338° Northwest 228 262 5,100 -1,033 Descending Indianapolis Center
Mon 05:08:50 PM 39.0394 -84.4078 335° Northwest 228 262 4,700 -537 Descending Indianapolis Center
Mon 05:09:52 PM 39.0486 -84.4714 281° West 230 265 4,000 -1,052 Descending Indianapolis Center
Mon 05:11:24 PM 39.0500 -84.5833 271° West 136 157 2,000 -1,059 Descending Cincinnati TRACON
Mon 05:12:25 PM 39.0500 -84.6333 270° West 94 108 1,300 -689 Descending Cincinnati TRACON

Login

Don't have an account? Register now (free) for customized features, flight alerts, and more!